sensor_id;sensor_type;location;lat;lon;timestamp;pressure;altitude;pressure_sealevel;temperature;humidity
7966;BME280;4028;43.272;26.932;2023-05-09T00:01:15;99674.06;;;11.84;100.00
7966;BME280;4028;43.272;26.932;2023-05-09T00:03:41;99663.44;;;11.84;100.00
7966;BME280;4028;43.272;26.932;2023-05-09T00:06:07;99659.25;;;11.91;100.00
7966;BME280;4028;43.272;26.932;2023-05-09T00:08:33;99670.84;;;11.90;100.00
7966;BME280;4028;43.272;26.932;2023-05-09T00:11:01;99669.03;;;11.90;100.00
7966;BME280;4028;43.272;26.932;2023-05-09T00:13:26;99666.78;;;11.95;100.00
7966;BME280;4028;43.272;26.932;2023-05-09T00:15:52;99674.44;;;11.79;100.00
7966;BME280;4028;43.272;26.932;2023-05-09T00:18:19;99669.13;;;11.79;100.00
7966;BME280;4028;43.272;26.932;2023-05-09T00:20:44;99680.16;;;11.75;100.00
7966;BME280;4028;43.272;26.932;2023-05-09T00:23:10;99674.84;;;11.75;100.00
7966;BME280;4028;43.272;26.932;2023-05-09T00:25:35;99678.53;;;11.83;100.00
7966;BME280;4028;43.272;26.932;2023-05-09T00:28:01;99678.53;;;11.83;100.00
7966;BME280;4028;43.272;26.932;2023-05-09T00:30:26;99684.91;;;11.81;100.00
7966;BME280;4028;43.272;26.932;2023-05-09T00:32:52;99656.28;;;11.75;100.00
7966;BME280;4028;43.272;26.932;2023-05-09T00:35:17;99678.78;;;11.90;100.00
7966;BME280;4028;43.272;26.932;2023-05-09T00:37:43;99678.34;;;11.75;100.00
7966;BME280;4028;43.272;26.932;2023-05-09T00:40:09;99688.25;;;11.63;100.00
7966;BME280;4028;43.272;26.932;2023-05-09T00:42:36;99693.94;;;11.59;100.00
7966;BME280;4028;43.272;26.932;2023-05-09T00:45:02;99692.97;;;11.60;100.00
7966;BME280;4028;43.272;26.932;2023-05-09T00:47:28;99694.66;;;11.70;100.00
7966;BME280;4028;43.272;26.932;2023-05-09T00:49:54;99696.88;;;11.75;100.00
7966;BME280;4028;43.272;26.932;2023-05-09T00:52:21;99690.19;;;11.71;100.00
7966;BME280;4028;43.272;26.932;2023-05-09T00:54:53;99693.66;;;11.71;100.00
7966;BME280;4028;43.272;26.932;2023-05-09T00:57:20;99686.13;;;11.57;100.00
7966;BME280;4028;43.272;26.932;2023-05-09T00:59:46;99691.03;;;11.62;100.00
7966;BME280;4028;43.272;26.932;2023-05-09T01:02:11;99690.31;;;11.60;100.00
7966;BME280;4028;43.272;26.932;2023-05-09T01:04:37;99692.97;;;11.60;100.00
7966;BME280;4028;43.272;26.932;2023-05-09T01:07:29;99692.69;;;11.53;100.00
7966;BME280;4028;43.272;26.932;2023-05-09T01:12:46;99694.22;;;11.56;100.00
7966;BME280;4028;43.272;26.932;2023-05-09T01:15:20;99690.88;;;11.54;100.00
7966;BME280;4028;43.272;26.932;2023-05-09T01:18:00;99686.53;;;11.53;100.00
7966;BME280;4028;43.272;26.932;2023-05-09T01:20:50;99685.13;;;11.49;100.00
7966;BME280;4028;43.272;26.932;2023-05-09T01:23:30;99691.13;;;11.51;100.00
7966;BME280;4028;43.272;26.932;2023-05-09T01:26:09;99681.47;;;11.40;100.00
7966;BME280;4028;43.272;26.932;2023-05-09T01:31:46;99687.09;;;11.56;100.00
7966;BME280;4028;43.272;26.932;2023-05-09T01:34:14;99694.06;;;11.48;100.00
7966;BME280;4028;43.272;26.932;2023-05-09T01:36:42;99705.50;;;11.48;100.00
7966;BME280;4028;43.272;26.932;2023-05-09T01:39:11;99697.56;;;11.48;100.00
7966;BME280;4028;43.272;26.932;2023-05-09T01:41:37;99701.84;;;11.39;100.00
7966;BME280;4028;43.272;26.932;2023-05-09T01:44:06;99702.81;;;11.38;100.00
7966;BME280;4028;43.272;26.932;2023-05-09T01:46:33;99700.88;;;11.40;100.00
7966;BME280;4028;43.272;26.932;2023-05-09T01:49:01;99702.69;;;11.40;100.00
7966;BME280;4028;43.272;26.932;2023-05-09T01:51:28;99703.22;;;11.34;100.00
7966;BME280;4028;43.272;26.932;2023-05-09T01:53:56;99700.72;;;11.32;100.00
7966;BME280;4028;43.272;26.932;2023-05-09T01:56:23;99690.81;;;11.34;100.00
7966;BME280;4028;43.272;26.932;2023-05-09T01:58:51;99689.56;;;11.38;100.00
7966;BME280;4028;43.272;26.932;2023-05-09T02:01:18;99690.81;;;11.34;100.00
7966;BME280;4028;43.272;26.932;2023-05-09T02:03:44;99690.66;;;11.26;100.00
7966;BME280;4028;43.272;26.932;2023-05-09T02:06:11;99701.09;;;11.18;100.00
7966;BME280;4028;43.272;26.932;2023-05-09T02:08:38;99696.72;;;11.07;100.00
7966;BME280;4028;43.272;26.932;2023-05-09T02:11:04;99691.44;;;11.07;100.00
7966;BME280;4028;43.272;26.932;2023-05-09T02:13:29;99695.91;;;11.07;100.00
7966;BME280;4028;43.272;26.932;2023-05-09T02:15:56;99699.22;;;11.09;100.00
7966;BME280;4028;43.272;26.932;2023-05-09T02:18:21;99700.91;;;11.10;100.00
7966;BME280;4028;43.272;26.932;2023-05-09T02:20:47;99699.38;;;11.07;100.00
7966;BME280;4028;43.272;26.932;2023-05-09T02:23:13;99692.53;;;11.05;100.00
7966;BME280;4028;43.272;26.932;2023-05-09T02:25:39;99689.38;;;11.11;100.00
7966;BME280;4028;43.272;26.932;2023-05-09T02:28:06;99699.69;;;11.14;100.00
7966;BME280;4028;43.272;26.932;2023-05-09T02:30:36;99695.78;;;11.18;100.00
7966;BME280;4028;43.272;26.932;2023-05-09T02:33:05;99693.66;;;11.02;100.00
7966;BME280;4028;43.272;26.932;2023-05-09T02:35:32;99694.19;;;10.96;100.00
7966;BME280;4028;43.272;26.932;2023-05-09T02:37:59;99698.09;;;11.02;100.00
7966;BME280;4028;43.272;26.932;2023-05-09T02:40:25;99703.13;;;11.05;100.00
7966;BME280;4028;43.272;26.932;2023-05-09T02:42:52;99692.47;;;10.95;100.00
7966;BME280;4028;43.272;26.932;2023-05-09T02:45:17;99714.38;;;10.97;100.00
7966;BME280;4028;43.272;26.932;2023-05-09T02:47:43;99675.34;;;10.99;100.00
7966;BME280;4028;43.272;26.932;2023-05-09T02:50:09;99702.88;;;11.08;100.00
7966;BME280;4028;43.272;26.932;2023-05-09T02:52:34;99701.72;;;11.01;100.00
7966;BME280;4028;43.272;26.932;2023-05-09T02:55:00;99714.28;;;11.08;100.00
7966;BME280;4028;43.272;26.932;2023-05-09T02:57:26;99711.19;;;11.03;100.00
7966;BME280;4028;43.272;26.932;2023-05-09T02:59:51;99709.69;;;11.01;100.00
7966;BME280;4028;43.272;26.932;2023-05-09T03:02:17;99707.72;;;11.03;100.00
7966;BME280;4028;43.272;26.932;2023-05-09T03:04:42;99715.09;;;10.99;100.00
7966;BME280;4028;43.272;26.932;2023-05-09T03:07:07;99712.47;;;11.09;100.00
7966;BME280;4028;43.272;26.932;2023-05-09T03:09:33;99713.44;;;11.08;100.00
7966;BME280;4028;43.272;26.932;2023-05-09T03:11:59;99716.78;;;11.10;100.00
7966;BME280;4028;43.272;26.932;2023-05-09T03:14:24;99726.94;;;11.05;100.00
7966;BME280;4028;43.272;26.932;2023-05-09T03:16:50;99718.91;;;11.06;100.00
7966;BME280;4028;43.272;26.932;2023-05-09T03:19:15;99724.84;;;10.99;100.00
7966;BME280;4028;43.272;26.932;2023-05-09T03:21:41;99724.84;;;10.99;100.00
7966;BME280;4028;43.272;26.932;2023-05-09T03:24:07;99728.72;;;10.94;100.00
7966;BME280;4028;43.272;26.932;2023-05-09T03:26:33;99727.03;;;10.93;100.00
7966;BME280;4028;43.272;26.932;2023-05-09T03:29:01;99718.66;;;10.88;100.00
7966;BME280;4028;43.272;26.932;2023-05-09T03:31:27;99737.09;;;11.00;100.00
7966;BME280;4028;43.272;26.932;2023-05-09T03:33:52;99736.41;;;10.98;100.00
7966;BME280;4028;43.272;26.932;2023-05-09T03:36:18;99706.94;;;10.81;100.00
7966;BME280;4028;43.272;26.932;2023-05-09T03:38:44;99743.81;;;11.04;100.00
7966;BME280;4028;43.272;26.932;2023-05-09T03:41:11;99749.22;;;10.72;100.00
7966;BME280;4028;43.272;26.932;2023-05-09T03:43:37;99748.16;;;10.84;100.00
7966;BME280;4028;43.272;26.932;2023-05-09T03:46:02;99756.25;;;10.82;100.00
7966;BME280;4028;43.272;26.932;2023-05-09T03:48:28;99756.78;;;10.76;100.00
7966;BME280;4028;43.272;26.932;2023-05-09T03:50:53;99758.84;;;10.73;100.00
7966;BME280;4028;43.272;26.932;2023-05-09T03:53:19;99760.13;;;10.78;100.00
7966;BME280;4028;43.272;26.932;2023-05-09T03:55:44;99761.56;;;10.61;100.00
7966;BME280;4028;43.272;26.932;2023-05-09T03:58:10;99766.47;;;10.66;100.00
7966;BME280;4028;43.272;26.932;2023-05-09T04:00:36;99768.06;;;10.78;100.00
7966;BME280;4028;43.272;26.932;2023-05-09T04:03:03;99770.25;;;10.73;100.00
7966;BME280;4028;43.272;26.932;2023-05-09T04:05:28;99774.91;;;10.81;100.00
7966;BME280;4028;43.272;26.932;2023-05-09T04:07:54;99777.19;;;10.85;100.00
7966;BME280;4028;43.272;26.932;2023-05-09T04:10:20;99779.31;;;10.91;100.00
7966;BME280;4028;43.272;26.932;2023-05-09T04:12:45;99793.53;;;10.90;100.00
7966;BME280;4028;43.272;26.932;2023-05-09T04:15:11;99778.97;;;10.85;100.00
7966;BME280;4028;43.272;26.932;2023-05-09T04:17:36;99789.44;;;10.86;100.00
7966;BME280;4028;43.272;26.932;2023-05-09T04:20:02;99772.28;;;10.81;100.00
7966;BME280;4028;43.272;26.932;2023-05-09T04:22:27;99793.06;;;10.85;100.00
7966;BME280;4028;43.272;26.932;2023-05-09T04:24:53;99791.81;;;10.89;100.00
7966;BME280;4028;43.272;26.932;2023-05-09T04:27:18;99789.91;;;10.91;100.00
7966;BME280;4028;43.272;26.932;2023-05-09T04:29:44;99783.38;;;10.96;100.00
7966;BME280;4028;43.272;26.932;2023-05-09T04:32:10;99790.44;;;10.95;100.00
7966;BME280;4028;43.272;26.932;2023-05-09T04:34:36;99781.88;;;10.82;100.00
7966;BME280;4028;43.272;26.932;2023-05-09T04:37:01;99791.69;;;10.91;100.00
7966;BME280;4028;43.272;26.932;2023-05-09T04:39:26;99796.66;;;10.84;100.00
7966;BME280;4028;43.272;26.932;2023-05-09T04:41:52;99787.13;;;10.72;100.00
7966;BME280;4028;43.272;26.932;2023-05-09T04:44:18;99797.69;;;10.72;100.00
7966;BME280;4028;43.272;26.932;2023-05-09T04:46:43;99782.44;;;10.64;100.00
7966;BME280;4028;43.272;26.932;2023-05-09T04:49:09;99804.53;;;10.75;100.00
7966;BME280;4028;43.272;26.932;2023-05-09T04:51:34;99798.09;;;10.88;100.00
7966;BME280;4028;43.272;26.932;2023-05-09T04:54:00;99802.16;;;10.92;100.00
7966;BME280;4028;43.272;26.932;2023-05-09T04:56:25;99798.59;;;10.82;100.00
7966;BME280;4028;43.272;26.932;2023-05-09T04:58:51;99797.78;;;10.82;100.00
7966;BME280;4028;43.272;26.932;2023-05-09T05:01:17;99800.56;;;10.80;100.00
7966;BME280;4028;43.272;26.932;2023-05-09T05:03:43;99789.97;;;10.80;100.00
7966;BME280;4028;43.272;26.932;2023-05-09T05:06:08;99800.34;;;10.93;100.00
7966;BME280;4028;43.272;26.932;2023-05-09T05:08:34;99796.16;;;10.90;100.00
7966;BME280;4028;43.272;26.932;2023-05-09T05:10:59;99802.34;;;11.01;100.00
7966;BME280;4028;43.272;26.932;2023-05-09T05:13:25;99757.78;;;10.85;100.00
7966;BME280;4028;43.272;26.932;2023-05-09T05:15:50;99798.44;;;11.05;100.00
7966;BME280;4028;43.272;26.932;2023-05-09T05:18:16;99798.84;;;11.00;100.00
7966;BME280;4028;43.272;26.932;2023-05-09T05:20:42;99793.97;;;10.96;100.00
7966;BME280;4028;43.272;26.932;2023-05-09T05:23:08;99794.00;;;11.05;100.00
7966;BME280;4028;43.272;26.932;2023-05-09T05:25:33;99801.56;;;11.10;100.00
7966;BME280;4028;43.272;26.932;2023-05-09T05:27:59;99803.25;;;11.11;100.00
7966;BME280;4028;43.272;26.932;2023-05-09T05:30:25;99796.25;;;11.10;100.00
7966;BME280;4028;43.272;26.932;2023-05-09T05:32:50;99799.53;;;11.23;100.00
7966;BME280;4028;43.272;26.932;2023-05-09T05:35:16;99802.34;;;11.22;100.00
7966;BME280;4028;43.272;26.932;2023-05-09T05:37:42;99803.56;;;11.17;100.00
7966;BME280;4028;43.272;26.932;2023-05-09T05:40:08;99801.06;;;11.16;100.00
7966;BME280;4028;43.272;26.932;2023-05-09T05:42:34;99802.78;;;11.27;100.00
7966;BME280;4028;43.272;26.932;2023-05-09T05:45:00;99806.06;;;11.19;100.00
7966;BME280;4028;43.272;26.932;2023-05-09T05:47:32;99811.81;;;11.24;100.00
7966;BME280;4028;43.272;26.932;2023-05-09T05:50:02;99808.03;;;11.17;100.00
7966;BME280;4028;43.272;26.932;2023-05-09T05:52:27;99767.16;;;10.89;100.00
7966;BME280;4028;43.272;26.932;2023-05-09T05:54:53;99805.75;;;11.12;100.00
7966;BME280;4028;43.272;26.932;2023-05-09T05:57:19;99814.75;;;11.21;100.00
7966;BME280;4028;43.272;26.932;2023-05-09T05:59:48;99814.22;;;11.27;100.00
7966;BME280;4028;43.272;26.932;2023-05-09T06:02:15;99815.44;;;11.23;100.00
7966;BME280;4028;43.272;26.932;2023-05-09T06:04:41;99814.84;;;11.19;100.00
7966;BME280;4028;43.272;26.932;2023-05-09T06:07:06;99817.31;;;11.32;100.00
7966;BME280;4028;43.272;26.932;2023-05-09T06:09:32;99820.63;;;11.34;100.00
7966;BME280;4028;43.272;26.932;2023-05-09T06:11:57;99824.13;;;11.35;100.00
7966;BME280;4028;43.272;26.932;2023-05-09T06:14:23;99828.44;;;11.26;100.00
7966;BME280;4028;43.272;26.932;2023-05-09T06:16:48;99819.63;;;11.26;100.00
7966;BME280;4028;43.272;26.932;2023-05-09T06:19:14;99825.06;;;11.24;100.00
7966;BME280;4028;43.272;26.932;2023-05-09T06:21:39;99828.28;;;11.28;100.00
7966;BME280;4028;43.272;26.932;2023-05-09T06:24:05;99822.69;;;11.21;100.00
7966;BME280;4028;43.272;26.932;2023-05-09T06:26:31;99829.38;;;11.25;100.00
7966;BME280;4028;43.272;26.932;2023-05-09T06:28:57;99824.28;;;11.33;100.00
7966;BME280;4028;43.272;26.932;2023-05-09T06:31:22;99826.56;;;11.48;100.00
7966;BME280;4028;43.272;26.932;2023-05-09T06:33:47;99826.03;;;11.54;100.00
7966;BME280;4028;43.272;26.932;2023-05-09T06:36:13;99827.44;;;11.58;100.00
7966;BME280;4028;43.272;26.932;2023-05-09T06:38:38;99826.22;;;11.62;100.00
7966;BME280;4028;43.272;26.932;2023-05-09T06:41:04;99826.66;;;11.67;100.00
7966;BME280;4028;43.272;26.932;2023-05-09T06:43:29;99827.25;;;11.50;100.00
7966;BME280;4028;43.272;26.932;2023-05-09T06:45:55;99830.19;;;11.47;100.00
7966;BME280;4028;43.272;26.932;2023-05-09T06:48:20;99816.22;;;11.44;100.00
7966;BME280;4028;43.272;26.932;2023-05-09T06:50:48;99819.59;;;11.47;100.00
7966;BME280;4028;43.272;26.932;2023-05-09T06:53:13;99815.69;;;11.51;100.00
7966;BME280;4028;43.272;26.932;2023-05-09T06:55:39;99812.28;;;11.69;100.00
7966;BME280;4028;43.272;26.932;2023-05-09T06:58:05;99807.66;;;11.71;100.00
7966;BME280;4028;43.272;26.932;2023-05-09T07:00:30;99815.88;;;11.59;100.00
7966;BME280;4028;43.272;26.932;2023-05-09T07:02:56;99822.16;;;11.58;100.00
7966;BME280;4028;43.272;26.932;2023-05-09T07:05:21;99822.41;;;11.55;100.00
7966;BME280;4028;43.272;26.932;2023-05-09T07:07:47;99820.78;;;11.63;100.00
7966;BME280;4028;43.272;26.932;2023-05-09T07:10:12;99810.28;;;11.52;100.00
7966;BME280;4028;43.272;26.932;2023-05-09T07:12:38;99828.59;;;11.65;100.00
7966;BME280;4028;43.272;26.932;2023-05-09T07:15:04;99826.91;;;11.64;100.00
7966;BME280;4028;43.272;26.932;2023-05-09T07:17:30;99826.34;;;11.60;100.00
7966;BME280;4028;43.272;26.932;2023-05-09T07:19:55;99837.31;;;11.56;100.00
7966;BME280;4028;43.272;26.932;2023-05-09T07:22:21;99832.72;;;11.48;100.00
7966;BME280;4028;43.272;26.932;2023-05-09T07:24:46;99833.00;;;11.55;100.00
7966;BME280;4028;43.272;26.932;2023-05-09T07:27:12;99840.41;;;11.61;100.00
7966;BME280;4028;43.272;26.932;2023-05-09T07:29:38;99830.97;;;11.68;100.00
7966;BME280;4028;43.272;26.932;2023-05-09T07:32:03;99819.34;;;11.59;100.00
7966;BME280;4028;43.272;26.932;2023-05-09T07:34:29;99828.59;;;11.65;100.00
7966;BME280;4028;43.272;26.932;2023-05-09T07:36:54;99835.03;;;11.72;100.00
7966;BME280;4028;43.272;26.932;2023-05-09T07:39:20;99829.44;;;11.75;100.00
7966;BME280;4028;43.272;26.932;2023-05-09T07:41:45;99836.97;;;11.70;100.00
7966;BME280;4028;43.272;26.932;2023-05-09T07:44:11;99826.66;;;11.77;100.00
7966;BME280;4028;43.272;26.932;2023-05-09T07:46:37;99827.84;;;11.84;100.00
7966;BME280;4028;43.272;26.932;2023-05-09T07:49:05;99826.66;;;11.77;100.00
7966;BME280;4028;43.272;26.932;2023-05-09T07:51:30;99825.28;;;11.73;100.00
7966;BME280;4028;43.272;26.932;2023-05-09T07:53:56;99834.31;;;11.70;100.00
7966;BME280;4028;43.272;26.932;2023-05-09T07:56:22;99829.19;;;11.78;100.00
7966;BME280;4028;43.272;26.932;2023-05-09T07:58:48;99816.13;;;11.86;100.00
7966;BME280;4028;43.272;26.932;2023-05-09T08:01:13;99823.25;;;11.95;100.00
7966;BME280;4028;43.272;26.932;2023-05-09T08:03:39;99825.38;;;12.02;100.00
7966;BME280;4028;43.272;26.932;2023-05-09T08:06:04;99824.28;;;12.04;100.00
7966;BME280;4028;43.272;26.932;2023-05-09T08:08:30;99801.50;;;12.02;100.00
7966;BME280;4028;43.272;26.932;2023-05-09T08:10:55;99803.34;;;12.11;100.00
7966;BME280;4028;43.272;26.932;2023-05-09T08:13:21;99820.94;;;12.31;100.00
7966;BME280;4028;43.272;26.932;2023-05-09T08:15:47;99818.16;;;12.42;100.00
7966;BME280;4028;43.272;26.932;2023-05-09T08:18:12;99825.84;;;12.26;100.00
7966;BME280;4028;43.272;26.932;2023-05-09T08:20:38;99812.81;;;12.23;100.00
7966;BME280;4028;43.272;26.932;2023-05-09T08:23:04;99820.81;;;12.33;100.00
7966;BME280;4028;43.272;26.932;2023-05-09T08:25:30;99817.47;;;12.50;100.00
7966;BME280;4028;43.272;26.932;2023-05-09T08:27:56;99815.34;;;12.73;100.00
7966;BME280;4028;43.272;26.932;2023-05-09T08:30:21;99812.75;;;13.10;100.00
7966;BME280;4028;43.272;26.932;2023-05-09T08:32:47;99816.78;;;13.43;100.00
7966;BME280;4028;43.272;26.932;2023-05-09T08:35:12;99808.03;;;13.51;100.00
7966;BME280;4028;43.272;26.932;2023-05-09T08:37:37;99804.66;;;13.59;100.00
7966;BME280;4028;43.272;26.932;2023-05-09T08:40:04;99787.88;;;13.58;100.00
7966;BME280;4028;43.272;26.932;2023-05-09T08:42:35;99798.00;;;14.00;100.00
7966;BME280;4028;43.272;26.932;2023-05-09T08:45:05;99801.50;;;14.00;100.00
7966;BME280;4028;43.272;26.932;2023-05-09T08:47:37;99779.44;;;13.90;100.00
7966;BME280;4028;43.272;26.932;2023-05-09T08:50:04;99797.47;;;13.69;100.00
7966;BME280;4028;43.272;26.932;2023-05-09T08:52:33;99793.69;;;13.71;100.00
7966;BME280;4028;43.272;26.932;2023-05-09T08:55:01;99774.94;;;13.91;100.00
7966;BME280;4028;43.272;26.932;2023-05-09T08:57:31;99781.00;;;14.28;100.00
7966;BME280;4028;43.272;26.932;2023-05-09T08:59:57;99775.53;;;14.30;100.00
7966;BME280;4028;43.272;26.932;2023-05-09T09:02:23;99782.28;;;14.24;100.00
7966;BME280;4028;43.272;26.932;2023-05-09T09:04:48;99777.56;;;14.18;100.00
7966;BME280;4028;43.272;26.932;2023-05-09T09:07:14;99765.41;;;14.51;100.00
7966;BME280;4028;43.272;26.932;2023-05-09T09:09:45;99773.44;;;15.03;100.00
7966;BME280;4028;43.272;26.932;2023-05-09T09:12:13;99763.34;;;14.89;100.00
7966;BME280;4028;43.272;26.932;2023-05-09T09:14:42;99782.72;;;14.73;100.00
7966;BME280;4028;43.272;26.932;2023-05-09T09:17:13;99786.31;;;14.46;100.00
7966;BME280;4028;43.272;26.932;2023-05-09T09:19:42;99786.88;;;14.50;100.00
7966;BME280;4028;43.272;26.932;2023-05-09T09:22:12;99778.28;;;14.56;100.00
7966;BME280;4028;43.272;26.932;2023-05-09T09:24:39;99775.59;;;15.00;100.00
7966;BME280;4028;43.272;26.932;2023-05-09T09:27:06;99779.59;;;15.30;100.00
7966;BME280;4028;43.272;26.932;2023-05-09T09:29:32;99777.84;;;15.81;100.00
7966;BME280;4028;43.272;26.932;2023-05-09T09:32:01;99776.06;;;15.98;100.00
7966;BME280;4028;43.272;26.932;2023-05-09T09:34:27;99776.16;;;15.80;100.00
7966;BME280;4028;43.272;26.932;2023-05-09T09:36:53;99776.53;;;15.85;100.00
7966;BME280;4028;43.272;26.932;2023-05-09T09:39:21;99768.19;;;15.88;100.00
7966;BME280;4028;43.272;26.932;2023-05-09T09:41:47;99730.97;;;15.36;100.00
7966;BME280;4028;43.272;26.932;2023-05-09T09:44:15;99764.41;;;15.56;100.00
7966;BME280;4028;43.272;26.932;2023-05-09T09:46:44;99765.22;;;15.57;100.00
7966;BME280;4028;43.272;26.932;2023-05-09T09:49:12;99767.22;;;15.97;100.00
7966;BME280;4028;43.272;26.932;2023-05-09T09:51:38;99770.06;;;16.04;100.00
7966;BME280;4028;43.272;26.932;2023-05-09T09:54:06;99767.03;;;15.91;100.00
7966;BME280;4028;43.272;26.932;2023-05-09T09:56:40;99768.78;;;15.66;100.00
7966;BME280;4028;43.272;26.932;2023-05-09T09:59:11;99765.38;;;15.55;100.00
7966;BME280;4028;43.272;26.932;2023-05-09T10:01:57;99768.91;;;15.56;100.00
7966;BME280;4028;43.272;26.932;2023-05-09T10:04:23;99780.22;;;15.24;100.00
7966;BME280;4028;43.272;26.932;2023-05-09T10:06:57;99760.09;;;14.95;100.00
7966;BME280;4028;43.272;26.932;2023-05-09T10:09:24;99769.53;;;14.90;100.00
7966;BME280;4028;43.272;26.932;2023-05-09T10:11:51;99779.69;;;14.68;100.00
7966;BME280;4028;43.272;26.932;2023-05-09T10:14:18;99779.19;;;14.65;100.00
7966;BME280;4028;43.272;26.932;2023-05-09T10:16:47;99777.59;;;14.54;100.00
7966;BME280;4028;43.272;26.932;2023-05-09T10:19:18;99769.28;;;14.39;100.00
7966;BME280;4028;43.272;26.932;2023-05-09T10:21:49;99770.91;;;14.50;100.00
7966;BME280;4028;43.272;26.932;2023-05-09T10:24:20;99774.59;;;14.21;100.00
7966;BME280;4028;43.272;26.932;2023-05-09T10:26:48;99775.31;;;14.23;100.00
7966;BME280;4028;43.272;26.932;2023-05-09T10:29:16;99772.78;;;14.22;100.00
7966;BME280;4028;43.272;26.932;2023-05-09T10:31:49;99776.75;;;14.18;100.00
7966;BME280;4028;43.272;26.932;2023-05-09T10:34:20;99777.47;;;14.10;100.00
7966;BME280;4028;43.272;26.932;2023-05-09T10:36:47;99774.44;;;14.05;100.00
7966;BME280;4028;43.272;26.932;2023-05-09T10:39:13;99772.31;;;14.09;100.00
7966;BME280;4028;43.272;26.932;2023-05-09T10:41:40;99773.09;;;14.19;100.00
7966;BME280;4028;43.272;26.932;2023-05-09T10:44:06;99768.06;;;14.16;100.00
7966;BME280;4028;43.272;26.932;2023-05-09T10:46:31;99766.69;;;14.12;100.00
7966;BME280;4028;43.272;26.932;2023-05-09T10:48:57;99768.13;;;14.06;100.00
7966;BME280;4028;43.272;26.932;2023-05-09T10:51:23;99767.06;;;13.99;100.00
7966;BME280;4028;43.272;26.932;2023-05-09T10:53:49;99767.91;;;13.99;100.00
7966;BME280;4028;43.272;26.932;2023-05-09T10:58:48;99776.44;;;14.21;100.00
7966;BME280;4028;43.272;26.932;2023-05-09T11:01:27;99770.50;;;14.27;100.00
7966;BME280;4028;43.272;26.932;2023-05-09T11:03:53;99770.50;;;14.27;100.00
7966;BME280;4028;43.272;26.932;2023-05-09T11:12:11;99765.34;;;14.08;100.00
7966;BME280;4028;43.272;26.932;2023-05-09T11:14:38;99778.09;;;14.22;100.00
7966;BME280;4028;43.272;26.932;2023-05-09T11:17:06;99775.22;;;14.33;100.00
7966;BME280;4028;43.272;26.932;2023-05-09T11:22:13;99774.69;;;14.29;100.00
7966;BME280;4028;43.272;26.932;2023-05-09T11:24:44;99778.19;;;14.30;100.00
7966;BME280;4028;43.272;26.932;2023-05-09T11:27:23;99771.31;;;14.27;100.00
7966;BME280;4028;43.272;26.932;2023-05-09T11:32:16;99769.81;;;14.25;100.00
7966;BME280;4028;43.272;26.932;2023-05-09T11:34:43;99770.19;;;14.30;100.00
7966;BME280;4028;43.272;26.932;2023-05-09T11:37:14;99755.97;;;14.39;100.00
7966;BME280;4028;43.272;26.932;2023-05-09T11:40:02;99752.09;;;14.51;100.00
7966;BME280;4028;43.272;26.932;2023-05-09T11:42:30;99764.50;;;14.61;100.00
7966;BME280;4028;43.272;26.932;2023-05-09T11:44:57;99759.16;;;14.61;100.00
7966;BME280;4028;43.272;26.932;2023-05-09T11:47:23;99757.19;;;14.63;100.00
7966;BME280;4028;43.272;26.932;2023-05-09T11:49:49;99748.34;;;14.62;100.00
7966;BME280;4028;43.272;26.932;2023-05-09T11:52:18;99741.53;;;14.60;100.00
7966;BME280;4028;43.272;26.932;2023-05-09T11:54:46;99744.69;;;14.63;100.00
7966;BME280;4028;43.272;26.932;2023-05-09T11:57:12;99748.88;;;14.66;100.00
7966;BME280;4028;43.272;26.932;2023-05-09T11:59:42;99751.34;;;14.59;100.00
7966;BME280;4028;43.272;26.932;2023-05-09T12:02:07;99744.94;;;14.70;100.00
7966;BME280;4028;43.272;26.932;2023-05-09T12:04:34;99741.53;;;14.60;100.00
7966;BME280;4028;43.272;26.932;2023-05-09T12:07:00;99752.63;;;14.55;100.00
7966;BME280;4028;43.272;26.932;2023-05-09T12:09:34;99754.09;;;14.49;100.00
7966;BME280;4028;43.272;26.932;2023-05-09T12:12:10;99754.47;;;14.54;100.00
7966;BME280;4028;43.272;26.932;2023-05-09T12:14:37;99744.13;;;14.51;100.00
7966;BME280;4028;43.272;26.932;2023-05-09T12:17:04;99738.16;;;14.40;100.00
7966;BME280;4028;43.272;26.932;2023-05-09T12:19:30;99742.13;;;14.36;100.00
7966;BME280;4028;43.272;26.932;2023-05-09T12:22:00;99751.47;;;14.22;100.00
7966;BME280;4028;43.272;26.932;2023-05-09T12:24:27;99758.41;;;14.15;100.00
7966;BME280;4028;43.272;26.932;2023-05-09T12:26:53;99741.69;;;14.04;100.00
7966;BME280;4028;43.272;26.932;2023-05-09T12:29:20;99759.63;;;14.02;100.00
7966;BME280;4028;43.272;26.932;2023-05-09T12:31:46;99745.56;;;13.92;100.00
7966;BME280;4028;43.272;26.932;2023-05-09T12:34:12;99756.19;;;13.92;100.00
7966;BME280;4028;43.272;26.932;2023-05-09T12:36:38;99748.78;;;13.86;100.00
7966;BME280;4028;43.272;26.932;2023-05-09T12:39:10;99748.94;;;13.85;100.00
7966;BME280;4028;43.272;26.932;2023-05-09T12:41:46;99748.94;;;13.85;100.00
7966;BME280;4028;43.272;26.932;2023-05-09T12:44:22;99744.84;;;13.90;100.00
7966;BME280;4028;43.272;26.932;2023-05-09T12:49:22;99733.53;;;13.88;100.00
7966;BME280;4028;43.272;26.932;2023-05-09T12:51:48;99739.31;;;14.01;100.00
7966;BME280;4028;43.272;26.932;2023-05-09T12:54:25;99743.50;;;14.04;100.00
7966;BME280;4028;43.272;26.932;2023-05-09T12:56:52;99736.44;;;14.13;100.00
7966;BME280;4028;43.272;26.932;2023-05-09T12:59:20;99718.78;;;13.94;100.00
7966;BME280;4028;43.272;26.932;2023-05-09T13:01:57;99744.81;;;14.18;100.00
7966;BME280;4028;43.272;26.932;2023-05-09T13:04:24;99725.25;;;14.09;100.00
7966;BME280;4028;43.272;26.932;2023-05-09T13:06:51;99733.31;;;14.35;100.00
7966;BME280;4028;43.272;26.932;2023-05-09T13:09:18;99727.59;;;14.30;100.00
7966;BME280;4028;43.272;26.932;2023-05-09T13:11:44;99722.66;;;14.17;100.00
7966;BME280;4028;43.272;26.932;2023-05-09T13:14:12;99719.63;;;14.12;100.00
7966;BME280;4028;43.272;26.932;2023-05-09T13:16:38;99722.53;;;14.19;100.00
7966;BME280;4028;43.272;26.932;2023-05-09T13:19:03;99719.84;;;14.19;100.00
7966;BME280;4028;43.272;26.932;2023-05-09T13:21:30;99709.13;;;14.11;100.00